Terminal Aerodrome Forecast
Issued by NWS Flagstaff, AZ

Home | Current Version | Previous Version | Text Only | Print | Product List | Glossary On
Versions: 1 2 3 4 5 6 7 8 9 10 11 12 13 14 15 16
000
FTUS45 KFGZ 270300 AAA
TAFFLG
TAF AMD
KFLG 270331Z 2704/2724 VRB04KT P6SM FEW040 BKN100
      TEMPO 2705/2708 6SM -SHRA BKN025 OVC040
     FM270800 22005KT 5SM -SHRA BR OVC018
     FM271800 21007KT P6SM OVC020=

USA.gov is the U.S. government's official web portal to all federal, state and local government web resources and services.